Search for airport 
image banner adimage banner adimage banner ad
image banner ad

CA77 - Ridgecrest Community Hospital

Located in Ridgecrest, United States

ICAO - CA77, IATA -

Data provided by Airmate  

General information

Coordinates: N35°38'25" W117°40'20"
Elevation is 2290 feet MSL.
Magnetic variation is 14° East
View others Airports in California

Operational data

Special qualification required
Current time UTC:
Current local time:
METAR: KNID 141156Z 34004KT 10SM SCT250 21/05 A2991 RMK AO2 SLP104 T02060050 10289 20206 53007 $
View NOTAMs / SUP AIP / TFR affecting this airport [VIEW]
Communications frequencies: [VIEW]

Runways:

Airport contact information

Address: Ridgecrest United States

Satellite view of CA77